createdAt,value
2022-11-03T00:02:18.539Z,9.30
2022-11-03T00:05:17.515Z,9.30
2022-11-03T00:08:03.564Z,9.30
2022-11-03T00:10:42.566Z,9.30
2022-11-03T00:13:28.490Z,9.30
2022-11-03T00:16:08.609Z,9.30
2022-11-03T00:18:54.521Z,9.30
2022-11-03T00:21:42.514Z,9.30
2022-11-03T00:24:22.177Z,9.30
2022-11-03T00:27:08.520Z,9.30
2022-11-03T00:29:48.139Z,9.30
2022-11-03T00:32:34.516Z,9.40
2022-11-03T00:35:14.222Z,9.30
2022-11-03T00:38:00.526Z,9.40
2022-11-03T00:40:40.181Z,9.40
2022-11-03T00:43:26.502Z,9.40
2022-11-03T00:46:08.265Z,9.40
2022-11-03T00:48:55.511Z,9.40
2022-11-03T00:51:41.529Z,9.40
2022-11-03T00:54:20.579Z,9.40
2022-11-03T00:57:06.487Z,9.40
2022-11-03T00:59:45.581Z,9.50
2022-11-03T01:02:31.589Z,9.50
2022-11-03T01:05:30.241Z,9.50
2022-11-03T01:08:16.504Z,9.50
2022-11-03T01:11:14.369Z,9.50
2022-11-03T01:14:01.528Z,9.50
2022-11-03T01:16:47.504Z,9.50
2022-11-03T01:19:33.512Z,9.50
2022-11-03T01:22:20.513Z,9.50
2022-11-03T01:25:06.511Z,9.50
2022-11-03T01:27:52.572Z,9.50
2022-11-03T01:30:39.540Z,9.60
2022-11-03T01:33:25.525Z,9.60
2022-11-03T01:36:05.473Z,9.70
2022-11-03T01:38:51.563Z,9.70
2022-11-03T01:41:37.528Z,9.80
2022-11-03T01:44:16.593Z,9.80
2022-11-03T01:47:28.515Z,9.90
2022-11-03T01:50:16.600Z,9.90
2022-11-03T01:53:05.824Z,10.00
2022-11-03T01:55:52.524Z,10.00
2022-11-03T01:58:45.547Z,10.10
2022-11-03T02:01:25.694Z,10.10
2022-11-03T02:04:21.548Z,10.10
2022-11-03T02:07:44.567Z,10.20
2022-11-03T02:10:24.798Z,10.20
2022-11-03T02:13:11.566Z,10.20
2022-11-03T02:15:57.246Z,10.30
2022-11-03T02:18:47.553Z,10.30
2022-11-03T02:22:01.553Z,10.40
2022-11-03T02:25:17.596Z,10.40
2022-11-03T02:28:04.561Z,10.50
2022-11-03T02:31:22.644Z,10.50
2022-11-03T02:34:32.543Z,10.60
2022-11-03T02:37:30.556Z,10.70
2022-11-03T02:40:18.147Z,10.80
2022-11-03T02:43:06.705Z,10.90
2022-11-03T02:45:49.741Z,10.90
2022-11-03T02:48:35.569Z,11.00
2022-11-03T02:51:15.544Z,11.10
2022-11-03T02:54:21.560Z,11.10
2022-11-03T02:57:27.572Z,11.20
2022-11-03T03:00:11.720Z,11.30
2022-11-03T03:03:23.590Z,11.30
2022-11-03T03:06:12.870Z,11.40
2022-11-03T03:09:06.592Z,11.40
2022-11-03T03:11:56.581Z,11.40
2022-11-03T03:14:41.342Z,11.40
2022-11-03T03:17:44.560Z,11.40
2022-11-03T03:20:44.646Z,11.40
2022-11-03T03:23:32.616Z,11.40
2022-11-03T03:26:25.482Z,11.40
2022-11-03T03:30:00.572Z,11.40
2022-11-03T03:32:55.599Z,11.40
2022-11-03T03:35:38.646Z,11.40
2022-11-03T03:38:42.574Z,11.40
2022-11-03T03:41:24.721Z,11.40
2022-11-03T03:44:15.582Z,11.40
2022-11-03T03:47:11.611Z,11.30
2022-11-03T03:49:51.408Z,11.30
2022-11-03T03:52:39.585Z,11.30
2022-11-03T03:55:25.689Z,11.30
2022-11-03T03:58:11.613Z,11.30
2022-11-03T04:00:51.322Z,11.20
2022-11-03T04:03:38.588Z,11.20
2022-11-03T04:06:18.476Z,11.20
2022-11-03T04:09:04.602Z,11.20
2022-11-03T04:12:09.614Z,11.10
2022-11-03T04:15:11.769Z,11.10
2022-11-03T04:18:16.583Z,11.10
2022-11-03T04:21:14.649Z,11.10
2022-11-03T04:24:00.644Z,11.10
2022-11-03T04:26:46.616Z,11.20
2022-11-03T04:29:26.281Z,11.20
2022-11-03T04:32:12.839Z,11.20
2022-11-03T04:34:52.562Z,11.20
2022-11-03T04:37:47.350Z,11.20
2022-11-03T04:40:26.761Z,11.30
2022-11-03T04:43:19.647Z,11.20
2022-11-03T04:45:58.703Z,11.30
2022-11-03T04:48:44.613Z,11.30
2022-11-03T04:51:34.643Z,11.30
2022-11-03T04:54:23.181Z,11.20
2022-11-03T04:57:09.820Z,11.20
2022-11-03T04:59:52.409Z,11.20
2022-11-03T05:02:39.641Z,11.20
2022-11-03T05:05:22.931Z,11.10
2022-11-03T05:08:10.648Z,11.10
2022-11-03T05:10:50.365Z,11.10
2022-11-03T05:13:41.631Z,11.10
2022-11-03T05:16:21.342Z,11.00
2022-11-03T05:19:08.659Z,11.00
2022-11-03T05:21:58.874Z,11.00
2022-11-03T05:24:48.639Z,10.90
2022-11-03T05:27:34.629Z,10.90
2022-11-03T05:30:20.686Z,10.90
2022-11-03T05:33:06.674Z,10.80
2022-11-03T05:35:45.798Z,10.80
2022-11-03T05:38:36.649Z,10.80
2022-11-03T05:41:30.867Z,10.70
2022-11-03T05:44:39.669Z,10.70
2022-11-03T05:47:37.641Z,10.60
2022-11-03T05:50:25.108Z,10.60
2022-11-03T05:53:39.659Z,10.50
2022-11-03T05:56:23.322Z,10.50
2022-11-03T05:59:09.704Z,10.50
2022-11-03T06:01:56.831Z,10.40
2022-11-03T06:04:41.784Z,10.40
2022-11-03T06:07:33.662Z,10.40
2022-11-03T06:10:45.903Z,10.30
2022-11-03T06:13:39.651Z,10.30
2022-11-03T06:16:47.660Z,10.20
2022-11-03T06:19:41.353Z,10.20
2022-11-03T06:22:51.656Z,10.10
2022-11-03T06:25:35.508Z,10.10
2022-11-03T06:28:42.748Z,10.10
2022-11-03T06:31:27.627Z,10.00
2022-11-03T06:34:14.674Z,10.00
2022-11-03T06:37:06.434Z,10.00
2022-11-03T06:39:47.725Z,10.00
2022-11-03T06:42:38.724Z,10.00
2022-11-03T06:45:31.814Z,10.00
2022-11-03T06:48:23.670Z,9.90
2022-11-03T06:51:11.707Z,9.90
2022-11-03T06:54:00.665Z,9.90
2022-11-03T06:56:49.712Z,9.90
2022-11-03T06:59:29.591Z,9.90
2022-11-03T07:02:15.766Z,9.90
2022-11-03T07:04:55.433Z,9.90
2022-11-03T07:07:41.681Z,10.00
2022-11-03T07:10:26.969Z,10.00
2022-11-03T07:13:22.678Z,10.00
2022-11-03T07:16:03.040Z,10.00
2022-11-03T07:18:55.189Z,10.10
2022-11-03T07:21:50.706Z,10.10
2022-11-03T07:24:41.770Z,10.10
2022-11-03T07:27:40.681Z,10.20
2022-11-03T07:30:36.763Z,10.20
2022-11-03T07:33:32.723Z,10.30
2022-11-03T07:36:17.200Z,10.40
2022-11-03T07:39:07.721Z,10.40
2022-11-03T07:41:54.706Z,10.50
2022-11-03T07:44:35.359Z,10.50
2022-11-03T07:47:31.714Z,10.60
2022-11-03T07:50:15.181Z,10.60
2022-11-03T07:53:00.694Z,10.70
2022-11-03T07:55:40.460Z,10.80
2022-11-03T07:58:34.849Z,10.80
2022-11-03T08:01:45.787Z,10.90
2022-11-03T08:04:38.704Z,10.90
2022-11-03T08:07:24.725Z,11.00
2022-11-03T08:10:06.578Z,11.10
2022-11-03T08:12:52.683Z,11.10
2022-11-03T08:15:31.796Z,11.20
2022-11-03T08:18:17.752Z,11.30
2022-11-03T08:20:56.950Z,11.40
2022-11-03T08:23:47.158Z,11.60
2022-11-03T08:26:34.887Z,11.70
2022-11-03T08:29:16.811Z,11.90
2022-11-03T08:32:02.715Z,12.00
2022-11-03T08:34:42.659Z,12.10
2022-11-03T08:37:28.726Z,12.30
2022-11-03T08:40:15.823Z,12.40
2022-11-03T08:43:01.745Z,12.60
2022-11-03T08:45:47.736Z,12.70
2022-11-03T08:48:39.756Z,12.90
2022-11-03T08:51:19.401Z,13.00
2022-11-03T08:54:05.770Z,13.20
2022-11-03T08:56:52.781Z,13.30
2022-11-03T08:59:31.839Z,13.50
2022-11-03T09:02:17.810Z,13.60
2022-11-03T09:04:56.891Z,13.80
2022-11-03T09:10:42.679Z,14.10
2022-11-03T09:13:28.758Z,14.20
2022-11-03T09:16:07.819Z,14.30
2022-11-03T09:18:53.805Z,14.40
2022-11-03T09:21:39.783Z,14.50
2022-11-03T09:24:19.655Z,14.60
2022-11-03T09:27:05.752Z,14.80
2022-11-03T09:30:12.080Z,14.90
2022-11-03T09:32:57.757Z,15.00
2022-11-03T09:35:38.011Z,15.10
2022-11-03T09:38:23.780Z,15.30
2022-11-03T09:41:13.447Z,15.40
2022-11-03T09:44:11.831Z,15.50
2022-11-03T09:46:58.793Z,15.60
2022-11-03T09:49:48.008Z,15.70
2022-11-03T09:52:34.802Z,15.80
2022-11-03T09:55:25.034Z,15.90
2022-11-03T09:58:22.332Z,16.00
2022-11-03T10:01:00.898Z,16.10
2022-11-03T10:03:46.768Z,16.20
2022-11-03T10:06:25.873Z,16.30
2022-11-03T10:09:23.603Z,16.30
2022-11-03T10:12:10.123Z,16.40
2022-11-03T10:14:50.647Z,16.50
2022-11-03T10:17:42.997Z,16.60
2022-11-03T10:20:22.937Z,16.70
2022-11-03T10:23:09.386Z,16.80
2022-11-03T10:25:49.717Z,16.80
2022-11-03T10:28:38.809Z,16.90
2022-11-03T10:31:20.519Z,17.00
2022-11-03T10:34:08.982Z,17.10
2022-11-03T10:36:55.816Z,17.10
2022-11-03T10:39:43.827Z,17.20
2022-11-03T10:42:36.807Z,17.30
2022-11-03T10:45:26.023Z,17.30
2022-11-03T10:48:13.807Z,17.40
2022-11-03T10:50:52.890Z,17.40
2022-11-03T10:53:38.806Z,17.40
2022-11-03T10:56:18.300Z,17.50
2022-11-03T10:59:07.157Z,17.50
2022-11-03T11:01:52.958Z,17.60
2022-11-03T11:04:32.826Z,17.60
2022-11-03T11:07:33.806Z,17.60
2022-11-03T11:10:27.869Z,17.60
2022-11-03T11:13:28.850Z,17.60
2022-11-03T11:16:53.838Z,17.60
2022-11-03T11:19:35.983Z,17.70
2022-11-03T11:22:29.833Z,17.70
2022-11-03T11:25:08.914Z,17.70
2022-11-03T11:28:01.819Z,17.70
2022-11-03T11:30:47.838Z,17.80
2022-11-03T11:33:39.817Z,17.80
2022-11-03T11:36:29.993Z,17.80
2022-11-03T11:39:25.816Z,17.80
2022-11-03T11:42:36.351Z,17.70
2022-11-03T11:46:16.163Z,17.70
2022-11-03T11:49:09.888Z,17.70
2022-11-03T11:51:56.838Z,17.70
2022-11-03T11:54:36.060Z,17.80
2022-11-03T11:57:27.837Z,17.80
2022-11-03T12:00:06.903Z,17.80
2022-11-03T12:02:53.873Z,17.80
2022-11-03T12:05:38.958Z,17.80
2022-11-03T12:08:31.333Z,17.80
2022-11-03T12:11:13.077Z,17.80
2022-11-03T12:13:59.884Z,17.80
2022-11-03T12:16:48.943Z,17.80
2022-11-03T12:19:50.081Z,17.80
2022-11-03T12:22:38.878Z,17.90
2022-11-03T12:25:36.351Z,17.80
2022-11-03T12:28:21.926Z,17.80
2022-11-03T12:31:03.068Z,17.80
2022-11-03T12:33:49.125Z,17.80
2022-11-03T12:36:34.927Z,17.70
2022-11-03T12:39:14.908Z,17.70
2022-11-03T12:42:00.968Z,17.70
2022-11-03T12:44:47.869Z,17.70
2022-11-03T12:47:33.883Z,17.60
2022-11-03T12:50:17.042Z,17.60
2022-11-03T12:53:03.354Z,17.60
2022-11-03T12:55:44.640Z,17.60
2022-11-03T12:58:30.896Z,17.50
2022-11-03T13:01:12.383Z,17.60
2022-11-03T13:03:58.915Z,17.50
2022-11-03T13:06:38.987Z,17.50
2022-11-03T13:09:24.907Z,17.50
2022-11-03T13:12:28.863Z,17.50
2022-11-03T13:15:10.471Z,17.40
2022-11-03T13:18:12.832Z,17.40
2022-11-03T13:20:53.617Z,17.40
2022-11-03T13:23:39.994Z,17.40
2022-11-03T13:26:39.940Z,17.40
2022-11-03T13:29:27.317Z,17.30
2022-11-03T13:32:15.918Z,17.30
2022-11-03T13:34:55.598Z,17.30
2022-11-03T13:37:41.921Z,17.30
2022-11-03T13:43:27.902Z,17.30
2022-11-03T13:46:07.758Z,17.10
2022-11-03T13:49:51.007Z,17.30
2022-11-03T13:51:59.911Z,17.20
2022-11-03T14:00:45.071Z,17.20
2022-11-03T14:06:29.995Z,17.20
2022-11-03T14:09:15.919Z,17.10
2022-11-03T14:12:19.957Z,17.20
2022-11-03T14:15:10.198Z,17.10
2022-11-03T14:17:55.913Z,17.10
2022-11-03T14:20:35.652Z,17.10
2022-11-03T14:23:21.962Z,17.10
2022-11-03T14:26:14.159Z,17.00
2022-11-03T14:29:00.938Z,17.00
2022-11-03T14:31:48.975Z,17.00
2022-11-03T14:34:29.101Z,17.00
2022-11-03T14:37:16.131Z,16.90
2022-11-03T14:39:55.611Z,16.90
2022-11-03T14:42:41.946Z,16.90
2022-11-03T14:45:21.823Z,16.80
2022-11-03T14:48:08.454Z,16.80
2022-11-03T14:50:48.610Z,16.70
2022-11-03T14:53:34.956Z,16.70
2022-11-03T14:56:14.862Z,16.70
2022-11-03T14:59:01.047Z,16.70
2022-11-03T15:01:47.256Z,16.60
2022-11-03T15:04:28.111Z,16.60
2022-11-03T15:07:13.950Z,16.50
2022-11-03T15:09:53.100Z,16.60
2022-11-03T15:12:39.067Z,16.50
2022-11-03T15:15:18.034Z,16.50
2022-11-03T15:18:11.040Z,16.40
2022-11-03T15:20:50.924Z,16.40
2022-11-03T15:26:36.638Z,16.30
2022-11-03T15:29:22.957Z,16.30
2022-11-03T15:32:09.020Z,16.30
2022-11-03T15:34:48.012Z,16.30
2022-11-03T15:37:33.968Z,16.20
2022-11-03T15:40:16.056Z,16.20
2022-11-03T15:43:03.243Z,16.20
2022-11-03T15:45:42.096Z,16.20
2022-11-03T15:48:32.049Z,16.10
2022-11-03T15:51:13.113Z,16.10
2022-11-03T15:53:59.990Z,16.10
2022-11-03T15:56:46.014Z,16.10
2022-11-03T15:59:26.066Z,16.00
2022-11-03T16:02:35.612Z,16.00
2022-11-03T16:05:20.932Z,16.00
2022-11-03T16:08:16.979Z,15.90
2022-11-03T16:10:58.379Z,15.90
2022-11-03T16:13:43.951Z,15.90
2022-11-03T16:16:23.656Z,15.80
2022-11-03T16:19:09.988Z,15.80
2022-11-03T16:21:58.046Z,15.80
2022-11-03T16:24:37.149Z,15.70
2022-11-03T16:27:23.018Z,15.70
2022-11-03T16:30:09.078Z,15.70
2022-11-03T16:32:59.024Z,15.60
2022-11-03T16:35:38.125Z,15.60
2022-11-03T16:38:24.982Z,15.60
2022-11-03T16:41:04.187Z,15.60
2022-11-03T16:43:50.125Z,15.50
2022-11-03T16:46:29.103Z,15.50
2022-11-03T16:49:15.515Z,15.50
2022-11-03T16:52:01.001Z,15.40
2022-11-03T16:54:40.677Z,15.40
2022-11-03T16:57:27.193Z,15.40
2022-11-03T17:00:23.020Z,15.40
2022-11-03T17:03:09.308Z,15.40
2022-11-03T17:05:48.800Z,15.30
2022-11-03T17:11:35.077Z,15.30
2022-11-03T17:14:23.058Z,15.30
2022-11-03T17:17:08.991Z,15.30
2022-11-03T17:19:55.001Z,15.30
2022-11-03T17:22:41.062Z,15.20
2022-11-03T17:25:20.084Z,15.20
2022-11-03T17:28:10.295Z,15.20
2022-11-03T17:30:49.967Z,15.20
2022-11-03T17:33:37.049Z,15.10
2022-11-03T17:36:16.209Z,15.20
2022-11-03T17:39:03.086Z,15.10
2022-11-03T17:41:49.162Z,15.10
2022-11-03T17:44:28.727Z,15.10
2022-11-03T17:47:15.035Z,15.10
2022-11-03T17:49:54.707Z,15.10
2022-11-03T17:52:44.042Z,15.10
2022-11-03T17:55:29.371Z,15.10
2022-11-03T17:58:16.035Z,15.10
2022-11-03T18:00:57.438Z,15.00
2022-11-03T18:03:43.046Z,15.00
2022-11-03T18:06:22.850Z,15.00
2022-11-03T18:09:09.104Z,15.00
2022-11-03T18:12:13.043Z,15.00
2022-11-03T18:14:52.340Z,15.00
2022-11-03T18:17:39.032Z,15.00
2022-11-03T18:20:30.135Z,15.00
2022-11-03T18:23:26.059Z,15.00
2022-11-03T18:26:08.146Z,15.00
2022-11-03T18:28:56.098Z,14.90
2022-11-03T18:31:50.171Z,14.90
2022-11-03T18:34:38.069Z,14.90
2022-11-03T18:37:25.016Z,14.90
2022-11-03T18:40:05.566Z,14.90
2022-11-03T18:42:51.039Z,14.90
2022-11-03T18:45:30.708Z,14.90
2022-11-03T18:48:25.045Z,14.90
2022-11-03T18:51:07.708Z,14.90
2022-11-03T18:53:54.049Z,14.90
2022-11-03T18:56:37.244Z,14.90
2022-11-03T18:59:56.080Z,14.90
2022-11-03T19:02:42.134Z,14.90
2022-11-03T19:05:22.667Z,14.90
2022-11-03T19:08:09.293Z,14.90
2022-11-03T19:10:48.152Z,14.90
2022-11-03T19:13:53.066Z,14.90
2022-11-03T19:16:32.359Z,14.90
2022-11-03T19:19:19.079Z,14.90
2022-11-03T19:22:06.058Z,14.90
2022-11-03T19:24:46.425Z,14.90
2022-11-03T19:27:47.059Z,14.90
2022-11-03T19:30:26.853Z,14.90
2022-11-03T19:33:13.085Z,14.90
2022-11-03T19:35:52.901Z,14.90
2022-11-03T19:38:40.084Z,14.90
2022-11-03T19:41:45.063Z,14.90
2022-11-03T19:44:24.189Z,14.90
2022-11-03T19:47:11.105Z,14.90
2022-11-03T19:49:52.141Z,14.90
2022-11-03T19:52:40.081Z,14.90
2022-11-03T19:55:20.552Z,14.90
2022-11-03T19:58:26.088Z,14.90
2022-11-03T20:01:08.665Z,14.90
2022-11-03T20:03:55.163Z,14.90
2022-11-03T20:06:35.157Z,14.90
2022-11-03T20:09:24.115Z,14.90
2022-11-03T20:12:16.102Z,14.90
2022-11-03T20:14:55.906Z,14.90
2022-11-03T20:17:42.133Z,14.90
2022-11-03T20:20:26.067Z,14.90
2022-11-03T20:23:13.109Z,14.90
2022-11-03T20:25:54.447Z,14.90
2022-11-03T20:28:44.083Z,14.90
2022-11-03T20:31:23.861Z,14.90
2022-11-03T20:34:10.138Z,14.90
2022-11-03T20:36:57.994Z,14.80
2022-11-03T20:39:45.098Z,14.80
2022-11-03T20:42:33.141Z,14.80
2022-11-03T20:45:25.379Z,14.80
2022-11-03T20:48:18.093Z,14.80
2022-11-03T20:50:58.199Z,14.80
2022-11-03T20:53:45.112Z,14.80
2022-11-03T20:56:31.199Z,14.80
2022-11-03T20:59:32.083Z,14.80
2022-11-03T21:02:27.238Z,14.80
2022-11-03T21:05:25.812Z,14.80
2022-11-03T21:08:12.113Z,14.90
2022-11-03T21:10:52.070Z,14.90
2022-11-03T21:13:38.122Z,14.90
2022-11-03T21:16:43.112Z,14.90
2022-11-03T21:19:42.537Z,14.90
2022-11-03T21:25:33.186Z,15.00
2022-11-03T21:28:19.171Z,15.00
2022-11-03T21:31:01.244Z,15.00
2022-11-03T21:33:47.129Z,15.00
2022-11-03T21:36:26.217Z,15.00
2022-11-03T21:39:12.146Z,15.00
2022-11-03T21:42:16.152Z,15.10
2022-11-03T21:44:57.184Z,15.00
2022-11-03T21:47:43.149Z,15.10
2022-11-03T21:50:22.830Z,15.10
2022-11-03T21:53:10.585Z,15.10
2022-11-03T21:55:50.834Z,15.10
2022-11-03T21:58:37.156Z,15.10
2022-11-03T22:01:16.963Z,15.10
2022-11-03T22:04:03.152Z,15.10
2022-11-03T22:06:42.780Z,15.10
2022-11-03T22:09:30.171Z,15.10
2022-11-03T22:12:16.151Z,15.10
2022-11-03T22:15:27.381Z,15.10
2022-11-03T22:18:13.533Z,15.00
2022-11-03T22:21:10.814Z,15.10
2022-11-03T22:24:15.145Z,15.00
2022-11-03T22:26:58.983Z,15.00
2022-11-03T22:30:04.180Z,15.00
2022-11-03T22:32:51.164Z,15.00
2022-11-03T22:35:49.159Z,15.00
2022-11-03T22:38:53.154Z,15.00
2022-11-03T22:41:51.488Z,15.00
2022-11-03T22:44:55.170Z,15.00
2022-11-03T22:47:34.884Z,15.00
2022-11-03T22:50:22.172Z,15.10
2022-11-03T22:53:28.181Z,15.00
2022-11-03T22:56:07.540Z,15.00
2022-11-03T22:58:54.162Z,15.00
2022-11-03T23:01:33.333Z,15.00
2022-11-03T23:04:19.169Z,15.00
2022-11-03T23:07:05.186Z,15.00
2022-11-03T23:09:45.145Z,14.90
2022-11-03T23:12:31.203Z,15.00
2022-11-03T23:15:29.534Z,14.90
2022-11-03T23:18:35.197Z,14.90
2022-11-03T23:21:14.836Z,14.90
2022-11-03T23:24:19.169Z,14.90
2022-11-03T23:27:12.217Z,14.90
2022-11-03T23:29:51.824Z,14.90
2022-11-03T23:32:38.210Z,14.90
2022-11-03T23:35:17.844Z,14.90
2022-11-03T23:38:04.187Z,14.90
2022-11-03T23:40:43.850Z,14.90
2022-11-03T23:43:30.193Z,14.90
2022-11-03T23:46:41.444Z,14.90
2022-11-03T23:49:28.205Z,14.90
2022-11-03T23:52:14.233Z,14.90
2022-11-03T23:54:53.277Z,14.90
2022-11-03T23:57:57.230Z,14.80
